createdAt,value
2019-03-03T00:00:57.020Z,55.13
2019-03-03T00:30:51.545Z,57.18
2019-03-03T01:00:55.845Z,58.36
2019-03-03T01:15:59.255Z,58.27
2019-03-03T01:30:50.972Z,57.66
2019-03-03T02:00:53.202Z,56.65
2019-03-03T02:15:50.731Z,56.31
2019-03-03T02:30:50.749Z,56.00
2019-03-03T02:45:51.655Z,56.23
2019-03-03T03:00:56.121Z,56.11
2019-03-03T03:15:56.624Z,55.89
2019-03-03T05:30:51.220Z,59.12
2019-03-03T05:45:50.602Z,59.78
2019-03-03T06:00:51.584Z,60.05
2019-03-03T06:15:50.799Z,60.53
2019-03-03T06:30:50.726Z,58.81
2019-03-03T06:45:50.775Z,58.76
2019-03-03T07:00:51.071Z,58.90
2019-03-03T07:15:57.511Z,58.76
2019-03-03T07:30:51.004Z,58.87
2019-03-03T07:45:50.918Z,58.71
2019-03-03T08:00:51.575Z,58.47
2019-03-03T08:15:53.875Z,57.94
2019-03-03T08:30:51.232Z,57.56
2019-03-03T08:45:59.989Z,56.69
2019-03-03T09:00:55.202Z,56.48
2019-03-03T09:15:56.593Z,55.09
2019-03-03T09:31:00.320Z,53.47
2019-03-03T10:00:55.835Z,50.03
2019-03-03T10:15:55.674Z,48.46
2019-03-03T10:30:54.720Z,45.79
2019-03-03T11:00:57.763Z,42.77
2019-03-03T11:15:57.973Z,43.81
2019-03-03T12:00:59.350Z,44.75
2019-03-03T12:15:59.965Z,43.35
2019-03-03T12:31:00.490Z,42.90
2019-03-03T12:45:57.000Z,40.53
2019-03-03T13:15:57.992Z,40.05
2019-03-03T13:30:57.855Z,39.34
2019-03-03T13:45:51.412Z,39.51
2019-03-03T14:00:51.467Z,39.33
2019-03-03T14:15:51.644Z,39.55
2019-03-03T14:30:51.162Z,39.67
2019-03-03T14:45:51.401Z,39.81
2019-03-03T15:00:53.500Z,39.46
2019-03-03T15:15:51.575Z,39.93
2019-03-03T15:30:51.564Z,40.88
2019-03-03T15:45:51.044Z,42.19
2019-03-03T16:00:53.444Z,43.02
2019-03-03T16:15:50.956Z,43.91
2019-03-03T16:30:51.372Z,44.33
2019-03-03T16:45:51.465Z,45.15
2019-03-03T17:00:51.990Z,45.92
2019-03-03T17:30:54.779Z,47.03
2019-03-03T17:45:53.308Z,47.88
2019-03-03T18:00:54.354Z,48.69
2019-03-03T18:30:51.820Z,49.37
2019-03-03T18:45:53.512Z,49.78
2019-03-03T19:00:58.610Z,51.03
2019-03-03T19:15:51.952Z,51.62
2019-03-03T19:30:51.630Z,52.81
2019-03-03T19:45:53.398Z,53.45
2019-03-03T20:00:51.561Z,54.42
2019-03-03T20:15:51.456Z,54.36
2019-03-03T20:30:51.044Z,54.27
2019-03-03T20:45:50.964Z,54.57
2019-03-03T21:00:51.332Z,54.82
2019-03-03T21:15:50.377Z,54.94
2019-03-03T21:30:52.877Z,54.91
2019-03-03T21:45:50.785Z,55.52
2019-03-03T22:00:51.249Z,55.71
2019-03-03T22:15:53.215Z,55.85
2019-03-03T22:30:51.255Z,56.50
2019-03-03T22:45:51.244Z,56.82
2019-03-03T23:30:55.466Z,56.58
2019-03-03T23:45:51.428Z,56.56
